Map

Track Data

SID SEASON NUMBER BASIN SUBBASIN NAME ISO_TIME NATURE LAT LON WMO_WIND WMO_PRES WMO_AGENCY TRACK_TYPE DIST2LAND LANDFALL IFLAG USA_AGENCY USA_ATCF_ID USA_LAT USA_LON USA_RECORD USA_STATUS USA_WIND USA_PRES USA_SSHS USA_R34_NE USA_R34_SE USA_R34_SW USA_R34_NW USA_R50_NE USA_R50_SE USA_R50_SW USA_R50_NW USA_R64_NE USA_R64_SE USA_R64_SW USA_R64_NW USA_POCI USA_ROCI USA_RMW USA_EYE TOKYO_LAT TOKYO_LON TOKYO_GRADE TOKYO_WIND TOKYO_PRES TOKYO_R50_DIR TOKYO_R50_LONG TOKYO_R50_SHORT TOKYO_R30_DIR TOKYO_R30_LONG TOKYO_R30_SHORT TOKYO_LAND CMA_LAT CMA_LON CMA_CAT CMA_WIND CMA_PRES HKO_LAT HKO_LON HKO_CAT HKO_WIND HKO_PRES NEWDELHI_LAT NEWDELHI_LON NEWDELHI_GRADE NEWDELHI_WIND NEWDELHI_PRES NEWDELHI_CI NEWDELHI_DP NEWDELHI_POCI REUNION_LAT REUNION_LON REUNION_TYPE REUNION_WIND REUNION_PRES REUNION_TNUM REUNION_CI REUNION_RMW REUNION_R34_NE REUNION_R34_SE REUNION_R34_SW REUNION_R34_NW REUNION_R50_NE REUNION_R50_SE REUNION_R50_SW REUNION_R50_NW REUNION_R64_NE REUNION_R64_SE REUNION_R64_SW REUNION_R64_NW BOM_LAT BOM_LON BOM_TYPE BOM_WIND BOM_PRES BOM_TNUM BOM_CI BOM_RMW BOM_R34_NE BOM_R34_SE BOM_R34_SW BOM_R34_NW BOM_R50_NE BOM_R50_SE BOM_R50_SW BOM_R50_NW BOM_R64_NE BOM_R64_SE BOM_R64_SW BOM_R64_NW BOM_ROCI BOM_POCI BOM_EYE BOM_POS_METHOD BOM_PRES_METHOD NADI_LAT NADI_LON NADI_CAT NADI_WIND NADI_PRES WELLINGTON_LAT WELLINGTON_LON WELLINGTON_WIND WELLINGTON_PRES DS824_LAT DS824_LON DS824_STAGE DS824_WIND DS824_PRES TD9636_LAT TD9636_LON TD9636_STAGE TD9636_WIND TD9636_PRES TD9635_LAT TD9635_LON TD9635_WIND TD9635_PRES TD9635_ROCI NEUMANN_LAT NEUMANN_LON NEUMANN_CLASS NEUMANN_WIND NEUMANN_PRES MLC_LAT MLC_LON MLC_CLASS MLC_WIND MLC_PRES USA_GUST BOM_GUST BOM_GUST_PER REUNION_GUST REUNION_GUST_PER USA_SEAHGT USA_SEARAD_NE USA_SEARAD_SE USA_SEARAD_SW USA_SEARAD_NW STORM_SPEED STORM_DIR
1979090S12168 1979 25 SP MM NOT_NAMED 1979-03-30 12:00:00 TS -12.0000 168.200 main 348 203 O________O____ jtwc_sh SH231979 -12.0000 168.200 -1 -12.0000 168.200 TC 27 213
1979090S12168 1979 25 SP MM NOT_NAMED 1979-03-30 15:00:00 TS -13.1282 167.442 main 198 70 P________P____ SH231979 -13.1282 167.442 -1 -13.1282 167.442 TC 26 212
1979090S12168 1979 25 SP MM NOT_NAMED 1979-03-30 18:00:00 TS -14.2000 166.800 main 59 0 O________O____ jtwc_sh SH231979 -14.2000 166.800 -1 -14.2000 166.800 TC 23 207
1979090S12168 1979 25 SP MM NOT_NAMED 1979-03-30 21:00:00 TS -15.1671 166.380 main 21 21 P________P____ SH231979 -15.1671 166.380 -1 -15.1671 166.380 TC 19 198
1979090S12168 1979 25 SP MM NOT_NAMED 1979-03-31 00:00:00 TS -16.0000 166.200 main 72 72 O________OO_O_ jtwc_sh SH231979 -16.0000 166.200 -1 -16.0000 166.200 TC 25 -16.0000 166.200 1 -16.0000 166.200 TC 30 15 185
1979090S12168 1979 25 SP MM NOT_NAMED 1979-03-31 03:00:00 TS -16.6790 166.252 main 108 108 P________PP_P_ SH231979 -16.6948 166.210 -1 -16.6948 166.210 TC 25 -16.6343 166.333 1 -16.6601 166.340 TC 30 13 170
1979090S12168 1979 25 SP MM NOT_NAMED 1979-03-31 06:00:00 TS -17.2925 166.441 main 139 131 O________OP_O_ jtwc_sh SH231979 -17.3000 166.400 -1 -17.3000 166.400 TC 25 -17.2649 166.493 1 -17.3000 166.500 TC 30 13 162
1979090S12168 1979 25 SP MM NOT_NAMED 1979-03-31 09:00:00 TS -17.9063 166.677 main 168 168 P________PP_P_ SH231979 -17.9149 166.648 -1 -17.9149 166.648 TC 25 -17.8881 166.707 1 -17.9074 166.705 TC 30 13 156
1979090S12168 1979 25 SP MM NOT_NAMED 1979-03-31 12:00:00 TS -18.5000 167.000 main 219 219 O________OO_O_ jtwc_sh SH231979 -18.5000 167.000 -1 -18.5000 167.000 TC 25 -18.5000 167.000 1 -18.5000 167.000 TC 30 14 150
1979090S12168 1979 25 SP MM NOT_NAMED 1979-03-31 15:00:00 TS -19.0866 167.406 main 279 276 P________PP_P_ SH231979 -19.0649 167.413 -1 -19.0649 167.413 TC 25 -19.0943 167.393 1 -19.1224 167.405 TC 30 14 143
1979090S12168 1979 25 SP MM NOT_NAMED 1979-03-31 18:00:00 TS -19.6387 167.893 main 281 266 O________OP_O_ jtwc_sh SH231979 -19.6000 167.900 -1 -19.6000 167.900 TC 25 -19.6548 167.871 1 -19.7000 167.900 TC 30 14 138
1979090S12168 1979 25 SP MM NOT_NAMED 1979-03-31 21:00:00 TS -20.1525 168.424 main 263 260 P________PP_P_ SH231979 -20.1299 168.428 -1 -20.1299 168.428 TC 30 -20.1629 168.415 1 -20.1874 168.428 TC 32 14 133
1979090S12168 1979 25 SP MM NOT_NAMED 1979-04-01 00:00:00 TS -20.6000 169.000 main 273 273 O________OO_O_ jtwc_sh SH231979 -20.6000 169.000 -1 -20.6000 169.000 TC 35 -20.6000 169.000 2 -20.6000 169.000 TC 35 14 128
1979090S12168 1979 25 SP MM NOT_NAMED 1979-04-01 03:00:00 TS -20.9869 169.583 main 300 300 P________PP_P_ SH231979 -20.9948 169.585 -1 -20.9948 169.585 TC 35 -20.9708 169.578 2 -20.9873 169.585 TC 35 13 122
1979090S12168 1979 25 SP MM NOT_NAMED 1979-04-01 06:00:00 TS -21.2923 170.198 main 345 345 O________OP_O_ jtwc_sh SH231979 -21.3000 170.200 -1 -21.3000 170.200 TC 35 -21.2692 170.191 2 -21.3000 170.200 TC 35 13 115
1979090S12168 1979 25 SP MM NOT_NAMED 1979-04-01 09:00:00 TS -21.5243 170.835 main 399 399 P________PP_P_ SH231979 -21.5297 170.835 -1 -21.5297 170.835 TC 35 -21.5081 170.834 2 -21.5297 170.835 TC 35 13 109
1979090S12168 1979 25 SP MM NOT_NAMED 1979-04-01 12:00:00 TS -21.7000 171.500 main 467 467 O________OO_O_ jtwc_sh SH231979 -21.7000 171.500 -1 -21.7000 171.500 TC 35 -21.7000 171.500 2 -21.7000 171.500 TC 35 13 105
1979090S12168 1979 25 SP MM NOT_NAMED 1979-04-01 15:00:00 TS -21.8686 172.192 main 536 536 P________PP_P_ SH231979 -21.8648 172.193 -1 -21.8648 172.193 TC 35 -21.8802 172.191 2 -21.8648 172.193 TC 35 13 103
1979090S12168 1979 25 SP MM NOT_NAMED 1979-04-01 18:00:00 TS -22.0043 172.900 main 608 591 O________OP_O_ jtwc_sh SH231979 -22.0000 172.900 -1 -22.0000 172.900 TC 35 -22.0174 172.901 2 -22.0000 172.900 TC 35 13 101
1979090S12168 1979 25 SP MM NOT_NAMED 1979-04-01 21:00:00 TS -22.1163 173.610 main 591 555 P________PP_P_ SH231979 -22.1148 173.608 -1 -22.1148 173.608 TC 35 -22.1208 173.610 2 -22.1149 173.615 TC 35 13 99
1979090S12168 1979 25 SP MM NOT_NAMED 1979-04-02 00:00:00 TS -22.2000 174.300 main 555 527 O________OO_O_ jtwc_sh SH231979 -22.2000 174.300 -1 -22.2000 174.300 TC 35 -22.2000 174.300 2 -22.2000 174.300 TC 35 12 97
1979090S12168 1979 25 SP MM NOT_NAMED 1979-04-02 03:00:00 TS -22.2634 174.941 main 532 505 P________PP_P_ SH231979 -22.2572 174.965 -1 -22.2572 174.965 TC 30 -22.2820 174.927 2 -22.2570 174.908 TC 32 12 95
1979090S12168 1979 25 SP MM NOT_NAMED 1979-04-02 06:00:00 TS -22.3106 175.559 main 502 487 O________OP_O_ jtwc_sh SH231979 -22.3000 175.600 -1 -22.3000 175.600 TC 25 -22.3426 175.535 2 -22.3000 175.500 TC 30 11 95
1979090S12168 1979 25 SP MM NOT_NAMED 1979-04-02 09:00:00 TS -22.3633 176.166 main 491 472 P________PP_P_ SH231979 -22.3570 176.192 -1 -22.3570 176.192 TC 25 -22.3819 176.151 2 -22.3571 176.127 TC 30 12 94
1979090S12168 1979 25 SP MM NOT_NAMED 1979-04-02 12:00:00 TS -22.4000 176.800 main 472 461 O________OO_O_ jtwc_sh SH231979 -22.4000 176.800 -1 -22.4000 176.800 TC 25 -22.4000 176.800 1 -22.4000 176.800 TC 30 12 92
1979090S12168 1979 25 SP MM NOT_NAMED 1979-04-02 15:00:00 TS -22.4106 177.482 main 460 458 P________PP_P_ SH231979 -22.4147 177.470 -1 -22.4147 177.470 TC 25 -22.3981 177.454 1 -22.4148 177.535 TC 30 13 90
1979090S12168 1979 25 SP MM NOT_NAMED 1979-04-02 18:00:00 TS -22.3940 178.213 main 458 458 O________OP_O_ jtwc_sh SH231979 -22.4000 178.200 -1 -22.4000 178.200 TC 25 -22.3759 178.151 1 -22.4000 178.300 TC 30 14 88
1979090S12168 1979 25 SP MM NOT_NAMED 1979-04-02 21:00:00 TS -22.3527 178.956 main 466 455 P________PP_P_ SH231979 -22.3568 178.955 -1 -22.3568 178.955 TC 25 -22.3409 178.922 1 -22.3562 178.990 TC 30 15 86
1979090S12168 1979 25 SP MM NOT_NAMED 1979-04-03 00:00:00 TS -22.3000 179.800 main 477 477 O________OO_O_ jtwc_sh SH231979 -22.3000 179.800 -1 -22.3000 179.800 TC 25 -22.3000 179.800 1 -22.3000 179.800 TC 30 17 87
1979090S12168 1979 25 SP MM NOT_NAMED 1979-04-03 03:00:00 TS -22.2516 180.792 main 518 512 P________PP_P_ SH231979 -22.2491 -179.267 -1 -22.2491 -179.267 TC 25 -22.2576 -179.195 1 -22.2505 -179.102 TC 30 19 87
1979090S12168 1979 25 SP MM NOT_NAMED 1979-04-03 06:00:00 TS -22.2030 181.903 main 567 567 O________OP_O_ jtwc_sh SH231979 -22.2000 -178.200 -1 -22.2000 181.800 TC 25 -22.2118 -178.087 1 -22.2000 -177.900 TC 30 21 87
1979090S12168 1979 25 SP MM NOT_NAMED 1979-04-03 09:00:00 TS -22.1538 183.085 main 648 648 P________PP_P_ SH231979 -22.1523 -176.990 -1 -22.1523 -176.990 TC 25 -22.1599 -176.910 1 -22.1507 -176.770 TC 30 22 87
1979090S12168 1979 25 SP MM NOT_NAMED 1979-04-03 12:00:00 TS -22.1000 184.300 main 736 O________OO_O_ jtwc_sh SH231979 -22.1000 -175.700 -1 -22.1000 184.300 TC 25 -22.1000 -175.700 6 -22.1000 -175.700 TC 30 23 87

Digital Typhoon Data and Search

About IBTrACS Database

This database is a web-friendly format of International Best Track Archive for Climate Stewardship (IBTrACS), a global best track data archive curated by NOAA dating back to 1842.

Updated: 2021-10-27